Hibbing, MN (55746)

6:52 PM CST on December 10, 2016 (GMT -0600)
Chisholm-hibbing | | Change Station

Elev 1352 ft 47.39 °N, 92.84 °W | Updated 59 minutes ago

Mostly Cloudy
Mostly Cloudy
-8 °F
Feels Like -8 °F
N
0
Wind Variable Wind from North

Today
High -- | Low -- °F
--% Chance of Precip.
Yesterday
High -- | Low -- °F
Precip. -- in
Pressure 30.39 in
Visibility 10.0 miles
Clouds Clear
Dew Point -12 °F
Humidity 83%
Rainfall 0.00 in
Snow Depth Not available.
7:48 AM 4:20 PM
Waxing Gibbous, 87% visible
METAR KHIB 102353Z AUTO 00000KT 10SM CLR M22/M24 A3025 RMK AO2 SLP291 60000 T12221244 11167 21222 58016
Pressure 30.39 in
Visibility 10.0 miles
Clouds Clear
Dew Point -12 °F
Humidity 83%
Rainfall 0.00 in
Snow Depth Not available.
7:48 AM 4:20 PM
Waxing Gibbous, 87% visible
METAR KHIB 102353Z AUTO 00000KT 10SM CLR M22/M24 A3025 RMK AO2 SLP291 60000 T12221244 11167 21222 58016

10-Day Weather Forecast

Almanac

Astronomy

Dec. 10, 2016 Rise Set
Actual Time
Civil Twilight
Nautical Twilight
Astronomical Twilight
Moon
Length of Visible Light
Length of Day
Tomorrow will be .
, % of the Moon is Illuminated

Today's Extremes

State Highs State Lows

Community

WunderPhotos

Upload Photos

1,956,685 photos uploaded!

WunderBlog® & News

Nearby

Air Quality

  Air Quality AQ Index Pollutant
Not available.

Snow Depth

Station Depth Elevation

Earthquake Activity

City Distance Mag. Time & Date
Minimum magnitude displayed is 2.5.

Coastal Water Temperatures

Place Temperature

Stations

Nearby Weather Stations

Station Location Temp. Windchill Dew Point Humidity Wind Precip. Elev Updated Type
                   

Watches & Warnings

There are currently no watches in effect.